sensor_id;sensor_type;location;lat;lon;timestamp;temperature;humidity
46364;DHT22;32071;49.036;9.344;2023-07-13T00:00:11;17.50;99.90
46364;DHT22;32071;49.036;9.344;2023-07-13T00:02:37;17.40;99.90
46364;DHT22;32071;49.036;9.344;2023-07-13T00:05:03;17.40;99.90
46364;DHT22;32071;49.036;9.344;2023-07-13T00:07:28;17.30;99.90
46364;DHT22;32071;49.036;9.344;2023-07-13T00:09:54;17.30;99.90
46364;DHT22;32071;49.036;9.344;2023-07-13T00:12:26;17.20;99.90
46364;DHT22;32071;49.036;9.344;2023-07-13T00:14:52;17.20;99.90
46364;DHT22;32071;49.036;9.344;2023-07-13T00:17:17;17.10;99.90
46364;DHT22;32071;49.036;9.344;2023-07-13T00:19:43;17.10;99.90
46364;DHT22;32071;49.036;9.344;2023-07-13T00:22:08;17.00;99.90
46364;DHT22;32071;49.036;9.344;2023-07-13T00:24:34;17.00;99.90
46364;DHT22;32071;49.036;9.344;2023-07-13T00:27:01;16.90;99.90
46364;DHT22;32071;49.036;9.344;2023-07-13T00:29:27;16.90;99.90
46364;DHT22;32071;49.036;9.344;2023-07-13T00:31:52;16.90;99.90
46364;DHT22;32071;49.036;9.344;2023-07-13T00:34:18;16.80;99.90
46364;DHT22;32071;49.036;9.344;2023-07-13T00:36:43;16.80;99.90
46364;DHT22;32071;49.036;9.344;2023-07-13T00:39:09;16.80;99.90
46364;DHT22;32071;49.036;9.344;2023-07-13T00:41:35;16.70;99.90
46364;DHT22;32071;49.036;9.344;2023-07-13T00:44:02;16.60;99.90
46364;DHT22;32071;49.036;9.344;2023-07-13T00:46:32;16.60;99.90
46364;DHT22;32071;49.036;9.344;2023-07-13T00:49:05;16.60;99.90
46364;DHT22;32071;49.036;9.344;2023-07-13T00:51:36;16.50;99.90
46364;DHT22;32071;49.036;9.344;2023-07-13T00:54:06;16.50;99.90
46364;DHT22;32071;49.036;9.344;2023-07-13T00:56:34;16.50;99.90
46364;DHT22;32071;49.036;9.344;2023-07-13T00:59:02;16.40;99.90
46364;DHT22;32071;49.036;9.344;2023-07-13T01:01:29;16.40;99.90
46364;DHT22;32071;49.036;9.344;2023-07-13T01:03:54;16.30;99.90
46364;DHT22;32071;49.036;9.344;2023-07-13T01:06:20;16.30;99.90
46364;DHT22;32071;49.036;9.344;2023-07-13T01:08:45;16.30;99.90
46364;DHT22;32071;49.036;9.344;2023-07-13T01:11:11;16.30;99.90
46364;DHT22;32071;49.036;9.344;2023-07-13T01:13:37;16.20;99.90
46364;DHT22;32071;49.036;9.344;2023-07-13T01:16:15;16.20;99.90
46364;DHT22;32071;49.036;9.344;2023-07-13T01:18:44;16.20;99.90
46364;DHT22;32071;49.036;9.344;2023-07-13T01:21:09;16.10;99.90
46364;DHT22;32071;49.036;9.344;2023-07-13T01:23:35;16.10;99.90
46364;DHT22;32071;49.036;9.344;2023-07-13T01:26:01;16.10;99.90
46364;DHT22;32071;49.036;9.344;2023-07-13T01:28:28;16.00;99.90
46364;DHT22;32071;49.036;9.344;2023-07-13T01:30:55;16.00;99.90
46364;DHT22;32071;49.036;9.344;2023-07-13T01:33:21;16.00;99.90
46364;DHT22;32071;49.036;9.344;2023-07-13T01:35:47;16.00;99.90
46364;DHT22;32071;49.036;9.344;2023-07-13T01:38:17;16.00;99.90
46364;DHT22;32071;49.036;9.344;2023-07-13T01:40:43;15.90;99.90
46364;DHT22;32071;49.036;9.344;2023-07-13T01:43:09;15.90;99.90
46364;DHT22;32071;49.036;9.344;2023-07-13T01:45:35;15.80;99.90
46364;DHT22;32071;49.036;9.344;2023-07-13T01:48:00;15.70;99.90
46364;DHT22;32071;49.036;9.344;2023-07-13T01:50:27;15.70;99.90
46364;DHT22;32071;49.036;9.344;2023-07-13T01:52:53;15.60;99.90
46364;DHT22;32071;49.036;9.344;2023-07-13T01:55:19;15.60;99.90
46364;DHT22;32071;49.036;9.344;2023-07-13T01:57:45;15.50;99.90
46364;DHT22;32071;49.036;9.344;2023-07-13T02:00:12;15.50;99.90
46364;DHT22;32071;49.036;9.344;2023-07-13T02:02:38;15.50;99.90
46364;DHT22;32071;49.036;9.344;2023-07-13T02:05:04;15.50;99.90
46364;DHT22;32071;49.036;9.344;2023-07-13T02:07:30;15.40;99.90
46364;DHT22;32071;49.036;9.344;2023-07-13T02:09:55;15.40;99.90
46364;DHT22;32071;49.036;9.344;2023-07-13T02:12:21;15.40;99.90
46364;DHT22;32071;49.036;9.344;2023-07-13T02:14:46;15.30;99.90
46364;DHT22;32071;49.036;9.344;2023-07-13T02:17:12;15.30;99.90
46364;DHT22;32071;49.036;9.344;2023-07-13T02:19:38;15.30;99.90
46364;DHT22;32071;49.036;9.344;2023-07-13T02:22:04;15.20;99.90
46364;DHT22;32071;49.036;9.344;2023-07-13T02:24:29;15.20;99.90
46364;DHT22;32071;49.036;9.344;2023-07-13T02:26:55;15.10;99.90
46364;DHT22;32071;49.036;9.344;2023-07-13T02:29:20;15.10;99.90
46364;DHT22;32071;49.036;9.344;2023-07-13T02:31:46;15.10;99.90
46364;DHT22;32071;49.036;9.344;2023-07-13T02:34:12;15.00;99.90
46364;DHT22;32071;49.036;9.344;2023-07-13T02:36:37;15.00;99.90
46364;DHT22;32071;49.036;9.344;2023-07-13T02:39:04;15.00;99.90
46364;DHT22;32071;49.036;9.344;2023-07-13T02:41:30;15.00;99.90
46364;DHT22;32071;49.036;9.344;2023-07-13T02:43:58;14.90;99.90
46364;DHT22;32071;49.036;9.344;2023-07-13T02:46:32;14.90;99.90
46364;DHT22;32071;49.036;9.344;2023-07-13T02:48:58;14.90;99.90
46364;DHT22;32071;49.036;9.344;2023-07-13T02:51:23;14.90;99.90
46364;DHT22;32071;49.036;9.344;2023-07-13T02:53:49;14.80;99.90
46364;DHT22;32071;49.036;9.344;2023-07-13T02:56:14;14.70;99.90
46364;DHT22;32071;49.036;9.344;2023-07-13T02:58:40;14.60;99.90
46364;DHT22;32071;49.036;9.344;2023-07-13T03:01:07;14.50;99.90
46364;DHT22;32071;49.036;9.344;2023-07-13T03:03:34;14.40;99.90
46364;DHT22;32071;49.036;9.344;2023-07-13T03:06:01;14.40;99.90
46364;DHT22;32071;49.036;9.344;2023-07-13T03:08:28;14.40;99.90
46364;DHT22;32071;49.036;9.344;2023-07-13T03:11:06;14.40;99.90
46364;DHT22;32071;49.036;9.344;2023-07-13T03:13:32;14.40;99.90
46364;DHT22;32071;49.036;9.344;2023-07-13T03:15:58;14.40;99.90
46364;DHT22;32071;49.036;9.344;2023-07-13T03:18:26;14.40;99.90
46364;DHT22;32071;49.036;9.344;2023-07-13T03:20:52;14.30;99.90
46364;DHT22;32071;49.036;9.344;2023-07-13T03:23:18;14.30;99.90
46364;DHT22;32071;49.036;9.344;2023-07-13T03:25:44;14.30;99.90
46364;DHT22;32071;49.036;9.344;2023-07-13T03:28:11;14.30;99.90
46364;DHT22;32071;49.036;9.344;2023-07-13T03:30:37;14.30;99.90
46364;DHT22;32071;49.036;9.344;2023-07-13T03:33:02;14.30;99.90
46364;DHT22;32071;49.036;9.344;2023-07-13T03:35:28;14.20;99.90
46364;DHT22;32071;49.036;9.344;2023-07-13T03:37:54;14.10;99.90
46364;DHT22;32071;49.036;9.344;2023-07-13T03:40:19;14.10;99.90
46364;DHT22;32071;49.036;9.344;2023-07-13T03:42:45;14.10;99.90
46364;DHT22;32071;49.036;9.344;2023-07-13T03:45:10;14.10;99.90
46364;DHT22;32071;49.036;9.344;2023-07-13T03:47:36;14.10;99.90
46364;DHT22;32071;49.036;9.344;2023-07-13T03:50:02;14.20;99.90
46364;DHT22;32071;49.036;9.344;2023-07-13T03:52:28;14.20;99.90
46364;DHT22;32071;49.036;9.344;2023-07-13T03:54:53;14.30;99.90
46364;DHT22;32071;49.036;9.344;2023-07-13T03:57:19;14.30;99.90
46364;DHT22;32071;49.036;9.344;2023-07-13T03:59:44;14.30;99.90
46364;DHT22;32071;49.036;9.344;2023-07-13T04:02:10;14.30;99.90
46364;DHT22;32071;49.036;9.344;2023-07-13T04:04:35;14.40;99.90
46364;DHT22;32071;49.036;9.344;2023-07-13T04:07:01;14.40;99.90
46364;DHT22;32071;49.036;9.344;2023-07-13T04:09:27;14.40;99.90
46364;DHT22;32071;49.036;9.344;2023-07-13T04:11:52;14.40;99.90
46364;DHT22;32071;49.036;9.344;2023-07-13T04:14:18;14.40;99.90
46364;DHT22;32071;49.036;9.344;2023-07-13T04:16:43;14.40;99.90
46364;DHT22;32071;49.036;9.344;2023-07-13T04:19:10;14.40;99.90
46364;DHT22;32071;49.036;9.344;2023-07-13T04:21:36;14.50;99.90
46364;DHT22;32071;49.036;9.344;2023-07-13T04:24:01;14.50;99.90
46364;DHT22;32071;49.036;9.344;2023-07-13T04:26:28;14.50;99.90
46364;DHT22;32071;49.036;9.344;2023-07-13T04:28:54;14.50;99.90
46364;DHT22;32071;49.036;9.344;2023-07-13T04:31:20;14.50;99.90
46364;DHT22;32071;49.036;9.344;2023-07-13T04:33:46;14.40;99.90
46364;DHT22;32071;49.036;9.344;2023-07-13T04:36:12;14.30;99.90
46364;DHT22;32071;49.036;9.344;2023-07-13T04:38:37;14.30;99.90
46364;DHT22;32071;49.036;9.344;2023-07-13T04:41:05;14.40;99.90
46364;DHT22;32071;49.036;9.344;2023-07-13T04:43:32;14.50;99.90
46364;DHT22;32071;49.036;9.344;2023-07-13T04:46:03;14.50;99.90
46364;DHT22;32071;49.036;9.344;2023-07-13T04:48:29;14.50;99.90
46364;DHT22;32071;49.036;9.344;2023-07-13T04:50:56;14.60;99.90
46364;DHT22;32071;49.036;9.344;2023-07-13T04:53:22;14.60;99.90
46364;DHT22;32071;49.036;9.344;2023-07-13T04:55:48;14.70;99.90
46364;DHT22;32071;49.036;9.344;2023-07-13T04:58:13;14.70;99.90
46364;DHT22;32071;49.036;9.344;2023-07-13T05:00:39;14.80;99.90
46364;DHT22;32071;49.036;9.344;2023-07-13T05:03:05;14.80;99.90
46364;DHT22;32071;49.036;9.344;2023-07-13T05:05:30;14.80;99.90
46364;DHT22;32071;49.036;9.344;2023-07-13T05:07:56;14.80;99.90
46364;DHT22;32071;49.036;9.344;2023-07-13T05:10:22;14.80;99.90
46364;DHT22;32071;49.036;9.344;2023-07-13T05:12:48;14.90;99.90
46364;DHT22;32071;49.036;9.344;2023-07-13T05:15:14;14.90;99.90
46364;DHT22;32071;49.036;9.344;2023-07-13T05:17:39;15.00;99.90
46364;DHT22;32071;49.036;9.344;2023-07-13T05:20:07;15.20;99.90
46364;DHT22;32071;49.036;9.344;2023-07-13T05:22:32;15.40;99.90
46364;DHT22;32071;49.036;9.344;2023-07-13T05:25:00;15.60;99.90
46364;DHT22;32071;49.036;9.344;2023-07-13T05:27:26;15.80;99.90
46364;DHT22;32071;49.036;9.344;2023-07-13T05:29:52;16.00;99.90
46364;DHT22;32071;49.036;9.344;2023-07-13T05:32:18;16.20;99.90
46364;DHT22;32071;49.036;9.344;2023-07-13T05:34:43;16.30;99.90
46364;DHT22;32071;49.036;9.344;2023-07-13T05:37:09;16.40;99.90
46364;DHT22;32071;49.036;9.344;2023-07-13T05:39:35;16.50;99.90
46364;DHT22;32071;49.036;9.344;2023-07-13T05:42:02;16.60;99.90
46364;DHT22;32071;49.036;9.344;2023-07-13T05:44:28;16.70;99.90
46364;DHT22;32071;49.036;9.344;2023-07-13T05:46:54;16.70;99.90
46364;DHT22;32071;49.036;9.344;2023-07-13T05:49:22;16.80;99.90
46364;DHT22;32071;49.036;9.344;2023-07-13T05:51:48;16.90;99.90
46364;DHT22;32071;49.036;9.344;2023-07-13T05:54:13;17.00;99.90
46364;DHT22;32071;49.036;9.344;2023-07-13T05:56:39;17.10;99.90
46364;DHT22;32071;49.036;9.344;2023-07-13T05:59:04;17.20;99.90
46364;DHT22;32071;49.036;9.344;2023-07-13T06:01:30;17.20;99.90
46364;DHT22;32071;49.036;9.344;2023-07-13T06:03:56;17.30;99.90
46364;DHT22;32071;49.036;9.344;2023-07-13T06:06:22;17.40;99.90
46364;DHT22;32071;49.036;9.344;2023-07-13T06:08:47;17.60;99.90
46364;DHT22;32071;49.036;9.344;2023-07-13T06:11:19;17.70;99.90
46364;DHT22;32071;49.036;9.344;2023-07-13T06:13:45;17.80;99.90
46364;DHT22;32071;49.036;9.344;2023-07-13T06:16:11;17.90;99.90
46364;DHT22;32071;49.036;9.344;2023-07-13T06:18:37;18.10;99.90
46364;DHT22;32071;49.036;9.344;2023-07-13T06:21:11;18.10;99.90
46364;DHT22;32071;49.036;9.344;2023-07-13T06:23:37;18.20;99.90
46364;DHT22;32071;49.036;9.344;2023-07-13T06:26:04;18.40;99.90
46364;DHT22;32071;49.036;9.344;2023-07-13T06:28:30;18.40;99.90
46364;DHT22;32071;49.036;9.344;2023-07-13T06:30:57;18.50;99.90
46364;DHT22;32071;49.036;9.344;2023-07-13T06:33:23;18.60;99.90
46364;DHT22;32071;49.036;9.344;2023-07-13T06:35:48;18.60;99.90
46364;DHT22;32071;49.036;9.344;2023-07-13T06:38:14;18.60;99.90
46364;DHT22;32071;49.036;9.344;2023-07-13T06:40:39;18.50;99.90
46364;DHT22;32071;49.036;9.344;2023-07-13T06:43:05;18.50;99.90
46364;DHT22;32071;49.036;9.344;2023-07-13T06:45:39;18.50;99.90
46364;DHT22;32071;49.036;9.344;2023-07-13T06:48:05;18.60;99.90
46364;DHT22;32071;49.036;9.344;2023-07-13T06:50:31;18.70;99.90
46364;DHT22;32071;49.036;9.344;2023-07-13T06:52:56;18.70;99.90
46364;DHT22;32071;49.036;9.344;2023-07-13T06:55:22;18.80;99.90
46364;DHT22;32071;49.036;9.344;2023-07-13T06:57:48;18.90;99.90
46364;DHT22;32071;49.036;9.344;2023-07-13T07:00:14;19.00;99.90
46364;DHT22;32071;49.036;9.344;2023-07-13T07:02:39;19.10;99.90
46364;DHT22;32071;49.036;9.344;2023-07-13T07:05:05;19.20;99.90
46364;DHT22;32071;49.036;9.344;2023-07-13T07:07:30;19.30;99.90
46364;DHT22;32071;49.036;9.344;2023-07-13T07:09:56;19.10;99.90
46364;DHT22;32071;49.036;9.344;2023-07-13T07:12:22;19.10;99.90
46364;DHT22;32071;49.036;9.344;2023-07-13T07:14:47;19.10;99.90
46364;DHT22;32071;49.036;9.344;2023-07-13T07:17:13;19.20;99.90
46364;DHT22;32071;49.036;9.344;2023-07-13T07:19:38;19.20;99.90
46364;DHT22;32071;49.036;9.344;2023-07-13T07:22:04;19.30;99.90
46364;DHT22;32071;49.036;9.344;2023-07-13T07:24:29;19.30;99.90
46364;DHT22;32071;49.036;9.344;2023-07-13T07:26:55;19.40;99.90
46364;DHT22;32071;49.036;9.344;2023-07-13T07:29:22;19.40;99.90
46364;DHT22;32071;49.036;9.344;2023-07-13T07:31:48;19.60;99.90
46364;DHT22;32071;49.036;9.344;2023-07-13T07:34:13;19.70;99.90
46364;DHT22;32071;49.036;9.344;2023-07-13T07:36:39;19.90;99.90
46364;DHT22;32071;49.036;9.344;2023-07-13T07:39:04;19.90;99.90
46364;DHT22;32071;49.036;9.344;2023-07-13T07:41:30;20.00;99.90
46364;DHT22;32071;49.036;9.344;2023-07-13T07:43:55;20.10;99.90
46364;DHT22;32071;49.036;9.344;2023-07-13T07:46:21;20.10;99.90
46364;DHT22;32071;49.036;9.344;2023-07-13T07:48:46;20.20;99.90
46364;DHT22;32071;49.036;9.344;2023-07-13T07:51:12;20.30;99.90
46364;DHT22;32071;49.036;9.344;2023-07-13T07:53:38;20.40;99.90
46364;DHT22;32071;49.036;9.344;2023-07-13T07:56:03;20.40;99.90
46364;DHT22;32071;49.036;9.344;2023-07-13T07:58:29;20.40;99.90
46364;DHT22;32071;49.036;9.344;2023-07-13T08:01:02;20.50;99.20
46364;DHT22;32071;49.036;9.344;2023-07-13T08:03:28;20.50;98.90
46364;DHT22;32071;49.036;9.344;2023-07-13T08:05:53;20.60;99.20
46364;DHT22;32071;49.036;9.344;2023-07-13T08:08:19;20.70;99.00
46364;DHT22;32071;49.036;9.344;2023-07-13T08:10:44;20.80;99.40
46364;DHT22;32071;49.036;9.344;2023-07-13T08:13:10;20.90;97.60
46364;DHT22;32071;49.036;9.344;2023-07-13T08:15:36;21.10;95.50
46364;DHT22;32071;49.036;9.344;2023-07-13T08:18:02;21.10;95.90
46364;DHT22;32071;49.036;9.344;2023-07-13T08:20:28;21.10;96.40
46364;DHT22;32071;49.036;9.344;2023-07-13T08:22:53;21.20;95.50
46364;DHT22;32071;49.036;9.344;2023-07-13T08:25:19;21.10;95.10
46364;DHT22;32071;49.036;9.344;2023-07-13T08:27:46;21.20;96.20
46364;DHT22;32071;49.036;9.344;2023-07-13T08:30:11;21.40;96.00
46364;DHT22;32071;49.036;9.344;2023-07-13T08:32:37;21.50;95.10
46364;DHT22;32071;49.036;9.344;2023-07-13T08:35:04;21.60;95.00
46364;DHT22;32071;49.036;9.344;2023-07-13T08:37:30;21.70;94.10
46364;DHT22;32071;49.036;9.344;2023-07-13T08:39:55;21.70;93.60
46364;DHT22;32071;49.036;9.344;2023-07-13T08:47:39;21.90;93.40
46364;DHT22;32071;49.036;9.344;2023-07-13T08:50:11;21.90;92.30
46364;DHT22;32071;49.036;9.344;2023-07-13T08:52:42;22.00;91.40
46364;DHT22;32071;49.036;9.344;2023-07-13T08:55:31;22.00;91.30
46364;DHT22;32071;49.036;9.344;2023-07-13T08:58:09;22.00;92.20
46364;DHT22;32071;49.036;9.344;2023-07-13T09:01:16;22.20;91.00
46364;DHT22;32071;49.036;9.344;2023-07-13T09:03:59;22.40;91.10
46364;DHT22;32071;49.036;9.344;2023-07-13T09:06:39;22.50;90.90
46364;DHT22;32071;49.036;9.344;2023-07-13T09:09:40;22.60;90.50
46364;DHT22;32071;49.036;9.344;2023-07-13T09:12:28;22.60;91.30
46364;DHT22;32071;49.036;9.344;2023-07-13T09:14:57;22.70;90.20
46364;DHT22;32071;49.036;9.344;2023-07-13T09:17:35;22.80;89.90
46364;DHT22;32071;49.036;9.344;2023-07-13T09:20:33;22.80;90.20
46364;DHT22;32071;49.036;9.344;2023-07-13T09:23:03;23.00;89.60
46364;DHT22;32071;49.036;9.344;2023-07-13T09:25:32;23.10;90.40
46364;DHT22;32071;49.036;9.344;2023-07-13T09:28:17;23.10;89.90
46364;DHT22;32071;49.036;9.344;2023-07-13T09:33:20;23.20;89.10
46364;DHT22;32071;49.036;9.344;2023-07-13T09:35:46;23.20;90.50
46364;DHT22;32071;49.036;9.344;2023-07-13T09:38:14;23.20;87.30
46364;DHT22;32071;49.036;9.344;2023-07-13T09:40:49;23.10;87.10
46364;DHT22;32071;49.036;9.344;2023-07-13T09:43:18;23.20;88.40
46364;DHT22;32071;49.036;9.344;2023-07-13T09:45:46;23.20;86.70
46364;DHT22;32071;49.036;9.344;2023-07-13T09:48:14;23.30;86.40
46364;DHT22;32071;49.036;9.344;2023-07-13T09:50:40;23.40;86.90
46364;DHT22;32071;49.036;9.344;2023-07-13T09:53:15;23.50;86.00
46364;DHT22;32071;49.036;9.344;2023-07-13T09:55:42;23.60;82.10
46364;DHT22;32071;49.036;9.344;2023-07-13T09:58:13;23.50;82.60
46364;DHT22;32071;49.036;9.344;2023-07-13T10:00:40;23.60;84.80
46364;DHT22;32071;49.036;9.344;2023-07-13T10:03:23;23.60;84.20
46364;DHT22;32071;49.036;9.344;2023-07-13T10:05:51;23.80;85.50
46364;DHT22;32071;49.036;9.344;2023-07-13T10:08:37;24.00;83.30
46364;DHT22;32071;49.036;9.344;2023-07-13T10:11:20;24.00;84.60
46364;DHT22;32071;49.036;9.344;2023-07-13T10:16:25;24.40;83.70
46364;DHT22;32071;49.036;9.344;2023-07-13T10:21:52;24.50;81.40
46364;DHT22;32071;49.036;9.344;2023-07-13T10:24:25;24.80;81.30
46364;DHT22;32071;49.036;9.344;2023-07-13T10:27:18;24.90;80.90
46364;DHT22;32071;49.036;9.344;2023-07-13T10:30:04;24.90;79.00
46364;DHT22;32071;49.036;9.344;2023-07-13T10:32:34;24.70;78.90
46364;DHT22;32071;49.036;9.344;2023-07-13T10:35:01;24.60;80.40
46364;DHT22;32071;49.036;9.344;2023-07-13T10:37:33;24.60;78.90
46364;DHT22;32071;49.036;9.344;2023-07-13T10:40:02;24.80;81.20
46364;DHT22;32071;49.036;9.344;2023-07-13T10:42:39;24.90;79.60
46364;DHT22;32071;49.036;9.344;2023-07-13T10:45:21;25.00;79.20
46364;DHT22;32071;49.036;9.344;2023-07-13T10:47:49;24.90;79.50
46364;DHT22;32071;49.036;9.344;2023-07-13T10:50:19;24.70;79.10
46364;DHT22;32071;49.036;9.344;2023-07-13T10:52:48;24.40;79.70
46364;DHT22;32071;49.036;9.344;2023-07-13T10:55:59;24.30;82.50
46364;DHT22;32071;49.036;9.344;2023-07-13T10:58:34;24.80;80.30
46364;DHT22;32071;49.036;9.344;2023-07-13T11:06:32;25.80;79.90
46364;DHT22;32071;49.036;9.344;2023-07-13T11:09:39;25.90;76.40
46364;DHT22;32071;49.036;9.344;2023-07-13T11:12:26;25.50;77.70
46364;DHT22;32071;49.036;9.344;2023-07-13T11:22:49;25.90;75.60
46364;DHT22;32071;49.036;9.344;2023-07-13T11:25:31;26.00;77.70
46364;DHT22;32071;49.036;9.344;2023-07-13T11:30:42;26.10;75.20
46364;DHT22;32071;49.036;9.344;2023-07-13T11:33:19;25.90;76.10
46364;DHT22;32071;49.036;9.344;2023-07-13T11:35:48;25.80;73.40
46364;DHT22;32071;49.036;9.344;2023-07-13T11:38:21;25.90;76.90
46364;DHT22;32071;49.036;9.344;2023-07-13T11:40:48;26.20;73.90
46364;DHT22;32071;49.036;9.344;2023-07-13T11:43:16;26.20;72.30
46364;DHT22;32071;49.036;9.344;2023-07-13T11:45:43;25.80;73.60
46364;DHT22;32071;49.036;9.344;2023-07-13T11:48:23;25.40;73.40
46364;DHT22;32071;49.036;9.344;2023-07-13T11:50:59;25.30;72.40
46364;DHT22;32071;49.036;9.344;2023-07-13T11:53:28;25.30;72.50
46364;DHT22;32071;49.036;9.344;2023-07-13T11:55:53;25.20;72.50
46364;DHT22;32071;49.036;9.344;2023-07-13T11:58:23;25.20;73.80
46364;DHT22;32071;49.036;9.344;2023-07-13T12:00:50;25.50;72.50
46364;DHT22;32071;49.036;9.344;2023-07-13T12:03:20;25.80;72.00
46364;DHT22;32071;49.036;9.344;2023-07-13T12:06:00;26.00;74.90
46364;DHT22;32071;49.036;9.344;2023-07-13T12:08:26;26.30;72.00
46364;DHT22;32071;49.036;9.344;2023-07-13T12:11:11;26.50;70.90
46364;DHT22;32071;49.036;9.344;2023-07-13T12:13:39;26.90;70.20
46364;DHT22;32071;49.036;9.344;2023-07-13T12:16:12;27.00;67.50
46364;DHT22;32071;49.036;9.344;2023-07-13T12:18:39;27.20;66.50
46364;DHT22;32071;49.036;9.344;2023-07-13T12:21:05;27.50;66.90
46364;DHT22;32071;49.036;9.344;2023-07-13T12:23:34;27.90;64.30
46364;DHT22;32071;49.036;9.344;2023-07-13T12:26:05;27.90;65.30
46364;DHT22;32071;49.036;9.344;2023-07-13T12:28:46;28.00;62.00
46364;DHT22;32071;49.036;9.344;2023-07-13T12:31:30;27.70;63.30
46364;DHT22;32071;49.036;9.344;2023-07-13T12:34:02;27.40;65.70
46364;DHT22;32071;49.036;9.344;2023-07-13T12:36:31;27.10;62.60
46364;DHT22;32071;49.036;9.344;2023-07-13T12:39:03;26.60;63.60
46364;DHT22;32071;49.036;9.344;2023-07-13T12:41:32;26.50;63.50
46364;DHT22;32071;49.036;9.344;2023-07-13T12:43:59;26.20;62.50
46364;DHT22;32071;49.036;9.344;2023-07-13T12:46:26;26.10;61.90
46364;DHT22;32071;49.036;9.344;2023-07-13T12:48:54;26.20;64.20
46364;DHT22;32071;49.036;9.344;2023-07-13T12:51:25;27.30;60.70
46364;DHT22;32071;49.036;9.344;2023-07-13T12:54:04;27.30;59.50
46364;DHT22;32071;49.036;9.344;2023-07-13T12:56:33;26.70;60.50
46364;DHT22;32071;49.036;9.344;2023-07-13T12:59:03;26.20;61.30
46364;DHT22;32071;49.036;9.344;2023-07-13T13:01:33;26.40;62.70
46364;DHT22;32071;49.036;9.344;2023-07-13T13:04:02;27.50;60.50
46364;DHT22;32071;49.036;9.344;2023-07-13T13:06:32;28.30;59.20
46364;DHT22;32071;49.036;9.344;2023-07-13T13:08:59;28.70;59.90
46364;DHT22;32071;49.036;9.344;2023-07-13T13:11:27;28.40;58.60
46364;DHT22;32071;49.036;9.344;2023-07-13T13:13:53;28.80;59.40
46364;DHT22;32071;49.036;9.344;2023-07-13T13:16:22;28.90;58.00
46364;DHT22;32071;49.036;9.344;2023-07-13T13:18:51;28.30;58.70
46364;DHT22;32071;49.036;9.344;2023-07-13T13:21:17;28.10;59.10
46364;DHT22;32071;49.036;9.344;2023-07-13T13:23:45;28.10;58.70
46364;DHT22;32071;49.036;9.344;2023-07-13T13:26:13;28.50;60.00
46364;DHT22;32071;49.036;9.344;2023-07-13T13:28:39;29.80;59.10
46364;DHT22;32071;49.036;9.344;2023-07-13T13:31:04;30.60;57.80
46364;DHT22;32071;49.036;9.344;2023-07-13T13:33:30;30.60;54.70
46364;DHT22;32071;49.036;9.344;2023-07-13T13:35:56;30.90;53.60
46364;DHT22;32071;49.036;9.344;2023-07-13T13:38:26;30.10;54.50
46364;DHT22;32071;49.036;9.344;2023-07-13T13:40:51;28.90;56.00
46364;DHT22;32071;49.036;9.344;2023-07-13T13:43:25;28.20;58.80
46364;DHT22;32071;49.036;9.344;2023-07-13T13:45:53;28.80;58.10
46364;DHT22;32071;49.036;9.344;2023-07-13T13:48:25;29.00;57.10
46364;DHT22;32071;49.036;9.344;2023-07-13T13:50:55;30.30;56.60
46364;DHT22;32071;49.036;9.344;2023-07-13T13:53:21;31.30;54.80
46364;DHT22;32071;49.036;9.344;2023-07-13T13:55:49;31.70;54.40
46364;DHT22;32071;49.036;9.344;2023-07-13T13:58:15;32.30;53.40
46364;DHT22;32071;49.036;9.344;2023-07-13T14:00:41;32.20;52.60
46364;DHT22;32071;49.036;9.344;2023-07-13T14:03:17;31.10;53.30
46364;DHT22;32071;49.036;9.344;2023-07-13T14:05:43;30.20;56.40
46364;DHT22;32071;49.036;9.344;2023-07-13T14:08:18;31.10;55.80
46364;DHT22;32071;49.036;9.344;2023-07-13T14:10:45;31.70;55.30
46364;DHT22;32071;49.036;9.344;2023-07-13T14:13:21;31.10;54.60
46364;DHT22;32071;49.036;9.344;2023-07-13T14:15:47;30.90;54.30
46364;DHT22;32071;49.036;9.344;2023-07-13T14:18:13;31.80;53.90
46364;DHT22;32071;49.036;9.344;2023-07-13T14:20:43;31.80;52.70
46364;DHT22;32071;49.036;9.344;2023-07-13T14:23:09;32.30;52.80
46364;DHT22;32071;49.036;9.344;2023-07-13T14:25:35;33.60;51.90
46364;DHT22;32071;49.036;9.344;2023-07-13T14:31:02;34.00;51.20
46364;DHT22;32071;49.036;9.344;2023-07-13T14:33:28;33.80;49.40
46364;DHT22;32071;49.036;9.344;2023-07-13T14:35:54;33.50;50.10
46364;DHT22;32071;49.036;9.344;2023-07-13T14:38:20;34.20;50.00
46364;DHT22;32071;49.036;9.344;2023-07-13T14:40:46;34.80;48.50
46364;DHT22;32071;49.036;9.344;2023-07-13T14:43:16;35.60;49.00
46364;DHT22;32071;49.036;9.344;2023-07-13T14:45:50;35.60;46.10
46364;DHT22;32071;49.036;9.344;2023-07-13T14:48:24;35.10;46.50
46364;DHT22;32071;49.036;9.344;2023-07-13T14:50:54;35.30;45.50
46364;DHT22;32071;49.036;9.344;2023-07-13T14:53:21;34.90;44.90
46364;DHT22;32071;49.036;9.344;2023-07-13T14:55:47;35.60;43.80
46364;DHT22;32071;49.036;9.344;2023-07-13T14:58:13;35.50;45.80
46364;DHT22;32071;49.036;9.344;2023-07-13T15:00:40;35.30;44.50
46364;DHT22;32071;49.036;9.344;2023-07-13T15:03:21;35.60;44.00
46364;DHT22;32071;49.036;9.344;2023-07-13T15:05:47;35.00;44.40
46364;DHT22;32071;49.036;9.344;2023-07-13T15:08:13;34.90;44.60
46364;DHT22;32071;49.036;9.344;2023-07-13T15:10:40;34.70;43.80
46364;DHT22;32071;49.036;9.344;2023-07-13T15:13:17;35.60;42.90
46364;DHT22;32071;49.036;9.344;2023-07-13T15:15:46;36.00;43.50
46364;DHT22;32071;49.036;9.344;2023-07-13T15:18:14;36.20;42.30
46364;DHT22;32071;49.036;9.344;2023-07-13T15:20:43;35.80;42.80
46364;DHT22;32071;49.036;9.344;2023-07-13T15:23:11;35.70;43.30
46364;DHT22;32071;49.036;9.344;2023-07-13T15:25:37;35.90;42.40
46364;DHT22;32071;49.036;9.344;2023-07-13T15:28:03;35.40;43.40
46364;DHT22;32071;49.036;9.344;2023-07-13T15:30:33;36.10;43.00
46364;DHT22;32071;49.036;9.344;2023-07-13T15:33:19;36.60;42.70
46364;DHT22;32071;49.036;9.344;2023-07-13T15:35:46;37.30;41.60
46364;DHT22;32071;49.036;9.344;2023-07-13T15:38:19;38.20;39.60
46364;DHT22;32071;49.036;9.344;2023-07-13T15:40:46;38.00;39.70
46364;DHT22;32071;49.036;9.344;2023-07-13T15:43:13;36.90;40.10
46364;DHT22;32071;49.036;9.344;2023-07-13T15:45:40;36.50;40.90
46364;DHT22;32071;49.036;9.344;2023-07-13T15:48:20;36.50;40.60
46364;DHT22;32071;49.036;9.344;2023-07-13T15:50:53;36.70;41.10
46364;DHT22;32071;49.036;9.344;2023-07-13T15:53:46;36.50;40.80
46364;DHT22;32071;49.036;9.344;2023-07-13T15:56:19;36.60;40.10
46364;DHT22;32071;49.036;9.344;2023-07-13T15:58:46;36.40;39.70
46364;DHT22;32071;49.036;9.344;2023-07-13T16:01:12;36.30;39.90
46364;DHT22;32071;49.036;9.344;2023-07-13T16:03:38;36.80;39.40
46364;DHT22;32071;49.036;9.344;2023-07-13T16:06:16;36.80;38.80
46364;DHT22;32071;49.036;9.344;2023-07-13T16:08:42;36.80;39.80
46364;DHT22;32071;49.036;9.344;2023-07-13T16:11:26;37.20;39.30